Time;durP1;ratioP1;P1;durP2;ratioP2;P2;SDS_P1;SDS_P2;PMS_P1;PMS_P2;Temp;Humidity;BMP_temperature;BMP_pressure;BME280_temperature;BME280_humidity;BME280_pressure;Samples;Min_cycle;Max_cycle;Signal;HPM_P1;HPM_P2
2021/01/02 00:01:03;;;;;;;87.18;43.28;;;5.00;99.90;;;;;;5070176;28;20086;-80
2021/01/02 00:03:51;;;;;;;90.57;42.97;;;5.00;99.90;;;;;;5057335;28;20049;-80
2021/01/02 00:06:26;;;;;;;92.70;41.63;;;4.90;99.90;;;;;;5063614;28;20034;-80
2021/01/02 00:09:00;;;;;;;91.75;41.97;;;5.00;99.90;;;;;;5050257;28;20037;-80
2021/01/02 00:11:44;;;;;;;87.68;41.58;;;5.00;99.90;;;;;;5050636;28;20029;-81
2021/01/02 00:14:16;;;;;;;91.10;40.53;;;5.00;99.90;;;;;;5060229;28;20024;-81
2021/01/02 00:16:50;;;;;;;87.53;41.05;;;5.10;99.90;;;;;;5064631;28;20037;-82
2021/01/02 00:19:33;;;;;;;91.32;41.17;;;4.90;99.90;;;;;;5050745;28;20025;-82
2021/01/02 00:22:19;;;;;;;92.97;43.03;;;5.00;99.90;;;;;;5050055;28;20025;-82
2021/01/02 00:24:54;;;;;;;84.72;41.60;;;5.00;99.90;;;;;;5054606;28;20032;-82
2021/01/02 00:27:32;;;;;;;84.97;41.70;;;4.90;99.90;;;;;;5065534;28;20366;-82
2021/01/02 00:30:02;;;;;;;85.45;41.22;;;5.00;99.90;;;;;;5051392;28;20025;-81
2021/01/02 00:32:47;;;;;;;91.57;42.25;;;5.00;99.90;;;;;;5049736;28;20039;-82
2021/01/02 00:35:23;;;;;;;87.90;43.13;;;4.90;99.90;;;;;;5044664;28;20033;-81
2021/01/02 00:38:06;;;;;;;90.63;41.33;;;4.90;99.90;;;;;;5050415;28;20040;-82
2021/01/02 00:40:34;;;;;;;88.65;42.35;;;4.90;99.90;;;;;;5050338;28;20401;-82
2021/01/02 00:43:00;;;;;;;85.28;41.47;;;4.80;99.90;;;;;;5049543;28;20615;-82
2021/01/02 00:45:31;;;;;;;82.20;42.78;;;4.90;99.90;;;;;;5066172;28;20127;-80
2021/01/02 00:47:57;;;;;;;83.05;42.33;;;5.00;99.90;;;;;;5063126;28;20074;-80
2021/01/02 00:50:25;;;;;;;91.50;43.05;;;5.00;99.90;;;;;;5053187;28;20398;-82
2021/01/02 00:52:50;;;;;;;87.60;41.50;;;5.00;99.90;;;;;;5071668;28;20032;-82
2021/01/02 00:55:31;;;;;;;87.90;42.00;;;5.00;99.90;;;;;;5053014;28;20035;-82
2021/01/02 00:58:10;;;;;;;79.03;40.27;;;4.90;99.90;;;;;;5058934;28;20024;-81
2021/01/02 01:00:38;;;;;;;88.68;41.83;;;4.90;99.90;;;;;;5072119;28;20036;-82
2021/01/02 01:03:03;;;;;;;80.00;40.78;;;5.00;99.90;;;;;;5063494;28;20025;-82
2021/01/02 01:05:37;;;;;;;80.88;38.85;;;5.00;99.90;;;;;;5057753;28;20021;-81
2021/01/02 01:08:07;;;;;;;87.35;41.00;;;5.00;99.90;;;;;;5052103;28;20431;-81
2021/01/02 01:10:34;;;;;;;86.93;40.53;;;5.00;99.90;;;;;;5052952;28;20017;-82
2021/01/02 01:13:25;;;;;;;82.85;39.22;;;4.90;99.90;;;;;;5052213;28;20487;-82
2021/01/02 01:15:51;;;;;;;74.43;37.45;;;4.90;99.90;;;;;;5052608;28;20504;-82
2021/01/02 01:18:16;;;;;;;79.88;38.20;;;5.00;99.90;;;;;;5052785;28;20031;-82
2021/01/02 01:20:53;;;;;;;75.05;36.97;;;5.00;99.90;;;;;;5071215;28;20103;-82
2021/01/02 01:23:50;;;;;;;71.65;35.22;;;5.00;99.90;;;;;;5073318;28;20016;-83
2021/01/02 01:26:53;;;;;;;78.72;35.97;;;5.00;99.90;;;;;;5071277;28;20028;-82
2021/01/02 01:29:28;;;;;;;77.13;37.90;;;5.00;99.90;;;;;;5058125;28;20565;-81
2021/01/02 01:31:58;;;;;;;73.50;35.95;;;4.90;99.90;;;;;;5052344;28;20024;-82
2021/01/02 01:34:26;;;;;;;77.38;36.03;;;4.90;99.90;;;;;;5068299;28;20589;-82
2021/01/02 01:36:52;;;;;;;71.63;36.28;;;4.80;99.90;;;;;;5052468;28;20017;-81
2021/01/02 01:39:23;;;;;;;73.97;35.65;;;4.90;99.90;;;;;;5053070;28;20024;-81
2021/01/02 01:42:20;;;;;;;67.97;35.78;;;4.90;99.90;;;;;;5052329;28;20441;-82
2021/01/02 01:45:06;;;;;;;71.68;35.72;;;4.90;99.90;;;;;;5051691;28;20170;-81
2021/01/02 01:47:40;;;;;;;76.82;33.92;;;4.90;99.90;;;;;;5065941;28;20044;-81
2021/01/02 01:50:35;;;;;;;72.10;36.80;;;4.90;99.90;;;;;;5052148;28;20481;-82
2021/01/02 01:53:27;;;;;;;70.15;34.78;;;4.80;99.90;;;;;;5052025;28;20427;-82
2021/01/02 01:56:23;;;;;;;66.57;34.20;;;4.90;99.90;;;;;;5089032;28;20042;-82
2021/01/02 01:58:52;;;;;;;68.55;32.50;;;4.90;99.90;;;;;;5058079;28;20040;-82
2021/01/02 02:01:23;;;;;;;69.85;33.30;;;4.90;99.90;;;;;;5075740;28;20123;-82
2021/01/02 02:04:01;;;;;;;68.00;34.00;;;5.00;99.90;;;;;;5055740;28;20025;-82
2021/01/02 02:06:30;;;;;;;71.90;34.10;;;4.90;99.90;;;;;;5051687;28;20024;-81
2021/01/02 02:08:58;;;;;;;67.60;32.38;;;4.90;99.90;;;;;;5051359;28;20516;-81
2021/01/02 02:11:34;;;;;;;69.60;32.47;;;4.90;99.90;;;;;;5069709;28;20083;-80
2021/01/02 02:14:10;;;;;;;76.13;35.75;;;4.90;99.90;;;;;;5059165;28;20031;-80
2021/01/02 02:16:45;;;;;;;61.35;33.35;;;4.90;99.90;;;;;;5056392;28;20033;-81
2021/01/02 02:20:00;;;;;;;63.55;33.45;;;4.90;99.90;;;;;;5053864;28;20031;-81
2021/01/02 02:22:27;;;;;;;71.60;33.78;;;4.90;99.90;;;;;;4912978;29;20499;-80
2021/01/02 02:24:54;;;;;;;76.07;32.90;;;4.90;99.90;;;;;;4906530;29;20115;-80
2021/01/02 02:27:27;;;;;;;69.30;32.13;;;4.90;99.90;;;;;;4903763;29;20048;-81
2021/01/02 02:30:08;;;;;;;70.53;33.53;;;4.90;99.90;;;;;;4913909;29;20042;-81
2021/01/02 02:32:39;;;;;;;72.45;33.65;;;4.90;99.90;;;;;;4909065;29;20055;-80
2021/01/02 02:35:15;;;;;;;66.32;32.15;;;4.90;99.90;;;;;;4919552;29;20216;-82
2021/01/02 02:37:51;;;;;;;73.85;34.55;;;4.90;99.90;;;;;;4907780;29;20139;-82
2021/01/02 02:40:19;;;;;;;72.15;33.10;;;4.90;99.90;;;;;;4909391;29;20046;-82
2021/01/02 02:43:00;;;;;;;73.57;34.70;;;4.90;99.90;;;;;;4907085;29;20029;-82
2021/01/02 02:45:30;;;;;;;70.03;33.63;;;4.90;99.90;;;;;;4909256;29;20047;-81
2021/01/02 02:48:00;;;;;;;65.32;33.85;;;4.90;99.90;;;;;;4895272;29;20075;-81
2021/01/02 02:50:27;;;;;;;73.18;35.20;;;4.80;99.90;;;;;;4889845;29;20463;-83
2021/01/02 02:53:10;;;;;;;73.55;34.10;;;4.80;99.90;;;;;;4895156;29;20119;-82
2021/01/02 02:55:40;;;;;;;68.35;34.47;;;4.80;99.90;;;;;;4909684;29;20039;-82
2021/01/02 02:58:06;;;;;;;64.43;32.15;;;4.80;99.90;;;;;;4934278;28;20038;-82
2021/01/02 03:00:33;;;;;;;78.25;34.42;;;4.80;99.90;;;;;;5078788;28;20039;-83
2021/01/02 03:02:58;;;;;;;80.20;34.65;;;4.70;99.90;;;;;;5070985;28;20113;-82
2021/01/02 03:05:24;;;;;;;70.32;35.00;;;4.70;99.90;;;;;;5065207;28;20024;-83
2021/01/02 03:07:50;;;;;;;77.35;34.00;;;4.80;99.90;;;;;;5068494;28;20112;-82
2021/01/02 03:10:20;;;;;;;76.13;34.17;;;4.80;99.90;;;;;;5055984;28;20032;-82
2021/01/02 03:12:48;;;;;;;73.07;34.60;;;4.80;99.90;;;;;;5055164;28;20448;-82
2021/01/02 03:15:15;;;;;;;72.10;35.63;;;4.70;99.90;;;;;;5055330;28;20035;-82
2021/01/02 03:17:42;;;;;;;68.38;33.78;;;4.70;99.90;;;;;;5058935;28;20473;-83
2021/01/02 03:20:09;;;;;;;77.75;35.70;;;4.60;99.90;;;;;;5074255;28;20020;-82
2021/01/02 03:22:36;;;;;;;87.35;38.00;;;4.70;99.90;;;;;;5055133;28;20100;-82
2021/01/02 03:25:02;;;;;;;75.05;35.55;;;4.60;99.90;;;;;;5054836;28;20047;-81
2021/01/02 03:27:28;;;;;;;82.57;37.55;;;4.60;99.90;;;;;;5053807;28;20035;-81
2021/01/02 03:29:53;;;;;;;99.63;43.25;;;4.60;99.90;;;;;;5054518;28;20024;-83
2021/01/02 03:32:19;;;;;;;81.07;39.90;;;4.60;99.90;;;;;;5072416;28;20048;-83
2021/01/02 03:34:44;;;;;;;78.80;37.92;;;4.60;99.90;;;;;;5054777;28;20040;-82
2021/01/02 03:37:10;;;;;;;77.75;38.13;;;4.60;99.90;;;;;;5055440;28;20016;-81
2021/01/02 03:39:36;;;;;;;91.22;39.55;;;4.60;99.90;;;;;;5054075;28;20079;-81
2021/01/02 03:42:02;;;;;;;82.65;37.45;;;4.60;99.90;;;;;;5054277;28;20473;-82
2021/01/02 03:44:28;;;;;;;86.95;39.20;;;4.60;99.90;;;;;;5072195;28;20044;-82
2021/01/02 03:46:53;;;;;;;85.20;40.28;;;4.60;99.90;;;;;;5054256;28;20131;-82
2021/01/02 03:49:19;;;;;;;81.07;40.20;;;4.50;99.90;;;;;;5064638;28;20028;-82
2021/01/02 03:51:44;;;;;;;80.25;38.70;;;4.50;99.90;;;;;;5061355;28;20036;-82
2021/01/02 03:54:10;;;;;;;90.88;40.20;;;4.60;99.90;;;;;;5053830;28;20032;-82
2021/01/02 03:56:35;;;;;;;85.32;40.17;;;4.60;99.90;;;;;;5057325;28;20026;-82
2021/01/02 03:59:01;;;;;;;74.32;37.78;;;4.50;99.90;;;;;;5056196;28;20112;-82
2021/01/02 04:01:27;;;;;;;91.32;42.92;;;4.60;99.90;;;;;;5055410;28;20025;-82
2021/01/02 04:03:52;;;;;;;86.32;40.80;;;4.60;99.90;;;;;;5054558;28;20020;-82
2021/01/02 04:06:25;;;;;;;79.28;38.45;;;4.60;99.90;;;;;;5053420;28;20142;-82
2021/01/02 04:08:51;;;;;;;93.18;42.10;;;4.60;99.90;;;;;;5071233;28;20529;-82
2021/01/02 04:11:16;;;;;;;85.65;40.63;;;4.60;99.90;;;;;;5076536;28;20056;-82
2021/01/02 04:13:42;;;;;;;91.90;42.63;;;4.60;99.90;;;;;;5058818;28;20152;-82
2021/01/02 04:16:07;;;;;;;88.07;41.15;;;4.60;99.90;;;;;;5069261;28;20024;-83
2021/01/02 04:18:34;;;;;;;85.70;39.08;;;4.60;99.90;;;;;;5053533;28;20400;-82
2021/01/02 04:21:00;;;;;;;82.75;39.58;;;4.60;99.90;;;;;;5053582;28;20031;-82
2021/01/02 04:23:26;;;;;;;88.20;41.15;;;4.60;99.90;;;;;;5053371;28;20056;-82
2021/01/02 04:25:52;;;;;;;85.50;40.88;;;4.60;99.90;;;;;;5060460;28;20073;-81
2021/01/02 04:28:17;;;;;;;89.13;41.50;;;4.70;99.90;;;;;;5061641;28;20034;-81
2021/01/02 04:30:43;;;;;;;87.15;41.47;;;4.70;99.90;;;;;;5053283;28;20093;-82
2021/01/02 04:33:08;;;;;;;93.13;42.55;;;4.60;99.90;;;;;;5054146;28;20025;-82
2021/01/02 04:35:35;;;;;;;87.75;40.67;;;4.60;99.90;;;;;;5069942;28;20032;-83
2021/01/02 04:38:02;;;;;;;76.40;39.08;;;4.60;99.90;;;;;;5063173;28;20074;-82
2021/01/02 04:40:28;;;;;;;86.70;43.08;;;4.60;99.90;;;;;;5053679;28;20059;-82
2021/01/02 04:42:54;;;;;;;87.68;40.97;;;4.50;99.90;;;;;;5063138;28;20052;-82
2021/01/02 04:45:20;;;;;;;91.22;44.70;;;4.50;99.90;;;;;;5053502;28;20127;-82
2021/01/02 04:47:48;;;;;;;88.80;43.38;;;4.50;99.90;;;;;;5052932;28;20036;-82
2021/01/02 04:50:14;;;;;;;89.72;42.72;;;4.50;99.90;;;;;;5071400;28;20065;-82
2021/01/02 04:52:41;;;;;;;93.60;41.55;;;4.50;99.90;;;;;;5070638;28;20068;-82
2021/01/02 04:55:08;;;;;;;84.13;41.00;;;4.60;99.90;;;;;;5052756;28;20025;-81
2021/01/02 04:57:38;;;;;;;88.72;43.03;;;4.60;99.90;;;;;;5052303;28;20067;-81
2021/01/02 05:00:08;;;;;;;88.25;42.03;;;4.70;99.90;;;;;;5053569;28;20494;-82
2021/01/02 05:02:36;;;;;;;103.05;45.30;;;4.70;99.90;;;;;;5070133;28;20028;-82
2021/01/02 05:05:03;;;;;;;89.47;40.97;;;4.70;99.90;;;;;;5061147;28;20123;-81
2021/01/02 05:07:30;;;;;;;90.30;42.00;;;4.70;99.90;;;;;;5089700;28;20032;-81
2021/01/02 05:09:56;;;;;;;80.78;41.22;;;4.70;99.90;;;;;;5056345;28;20046;-82
2021/01/02 05:12:26;;;;;;;89.25;41.85;;;4.70;99.90;;;;;;5053691;28;20043;-82
2021/01/02 05:15:09;;;;;;;82.93;40.63;;;4.70;99.90;;;;;;5066308;28;20036;-82
2021/01/02 05:17:35;;;;;;;79.90;41.85;;;4.70;99.90;;;;;;5065593;28;20028;-82
2021/01/02 05:20:07;;;;;;;88.53;41.00;;;4.70;99.90;;;;;;5052408;28;20028;-82
2021/01/02 05:22:33;;;;;;;90.03;43.67;;;4.70;99.90;;;;;;5079066;28;20037;-82
2021/01/02 05:25:20;;;;;;;91.72;41.75;;;4.80;99.90;;;;;;5052001;28;20024;-82
2021/01/02 05:27:51;;;;;;;83.97;42.15;;;4.70;99.90;;;;;;5051867;28;20097;-82
2021/01/02 05:30:27;;;;;;;82.20;40.00;;;4.70;99.90;;;;;;5081206;28;20024;-82
2021/01/02 05:33:04;;;;;;;78.10;39.55;;;4.70;99.90;;;;;;5058245;28;20032;-82
2021/01/02 05:35:34;;;;;;;92.70;41.17;;;4.80;99.90;;;;;;5064497;28;21002;-82
2021/01/02 05:38:14;;;;;;;79.15;38.97;;;4.80;99.90;;;;;;5051606;28;20050;-82
2021/01/02 05:40:41;;;;;;;80.63;40.33;;;4.80;99.90;;;;;;5062412;28;20032;-82
2021/01/02 05:43:07;;;;;;;80.93;40.40;;;4.90;99.90;;;;;;5052927;28;20024;-82
2021/01/02 05:45:33;;;;;;;84.90;41.25;;;4.80;99.90;;;;;;5051951;28;20059;-81
2021/01/02 05:48:10;;;;;;;80.55;40.50;;;4.80;99.90;;;;;;5051266;28;20033;-80
2021/01/02 05:50:43;;;;;;;82.57;40.17;;;4.80;99.90;;;;;;5071471;28;20036;-82
2021/01/02 05:53:22;;;;;;;83.10;38.97;;;4.80;99.90;;;;;;5054894;28;20028;-82
2021/01/02 05:56:06;;;;;;;76.80;38.85;;;4.90;99.90;;;;;;5057847;28;20031;-82
2021/01/02 05:58:41;;;;;;;80.90;38.47;;;4.90;99.90;;;;;;5070911;28;20411;-82
2021/01/02 06:01:11;;;;;;;80.93;39.33;;;4.90;99.90;;;;;;5052002;28;20416;-82
2021/01/02 06:03:38;;;;;;;81.07;40.58;;;4.80;99.90;;;;;;5050686;28;20071;-82
2021/01/02 06:06:11;;;;;;;80.90;39.38;;;4.80;99.90;;;;;;5051764;28;20017;-82
2021/01/02 06:08:39;;;;;;;79.93;40.10;;;4.80;99.90;;;;;;5045869;28;20059;-82
2021/01/02 06:11:10;;;;;;;79.57;39.65;;;4.80;99.90;;;;;;5051898;28;20028;-82
2021/01/02 06:13:42;;;;;;;77.25;38.35;;;4.80;99.90;;;;;;5050470;28;20040;-82
2021/01/02 06:16:09;;;;;;;85.97;39.42;;;4.80;99.90;;;;;;5050942;28;20498;-82
2021/01/02 06:18:37;;;;;;;84.13;39.58;;;4.80;99.90;;;;;;5059399;28;20179;-82
2021/01/02 06:21:06;;;;;;;77.70;39.15;;;4.90;99.90;;;;;;5052927;28;20048;-81
2021/01/02 06:23:34;;;;;;;82.85;39.95;;;4.90;99.90;;;;;;5051169;28;20548;-82
2021/01/02 06:26:04;;;;;;;87.88;37.85;;;4.90;99.90;;;;;;5051521;28;20016;-81
2021/01/02 06:28:31;;;;;;;80.28;37.22;;;4.90;99.90;;;;;;5068896;28;20055;-81
2021/01/02 06:31:02;;;;;;;74.68;36.67;;;4.90;99.90;;;;;;5063609;28;20020;-82
2021/01/02 06:33:29;;;;;;;77.60;36.95;;;4.90;99.90;;;;;;5055607;28;20066;-81
2021/01/02 06:35:55;;;;;;;83.80;39.78;;;4.80;99.90;;;;;;5051092;28;20023;-82
2021/01/02 06:38:22;;;;;;;71.72;36.28;;;4.80;99.90;;;;;;5053589;28;20099;-82
2021/01/02 06:40:50;;;;;;;79.15;37.35;;;4.80;99.90;;;;;;5050910;28;20036;-82
2021/01/02 06:43:21;;;;;;;72.25;37.63;;;4.90;99.90;;;;;;5050924;28;20056;-82
2021/01/02 06:45:48;;;;;;;;;;;4.90;99.90;;;;;;5080307;28;20058;-82
2021/01/02 06:48:16;;;;;;;83.25;34.47;;;4.90;99.90;;;;;;5055392;28;19917;-82
2021/01/02 06:50:51;;;;;;;71.95;33.42;;;4.90;99.90;;;;;;5051058;28;20384;-82
2021/01/02 06:53:36;;;;;;;71.47;36.80;;;4.90;99.90;;;;;;5052963;28;20025;-82
2021/01/02 06:56:07;;;;;;;77.65;36.08;;;4.90;99.90;;;;;;5048726;28;20384;-82
2021/01/02 06:58:47;;;;;;;70.82;35.25;;;5.00;99.90;;;;;;5057133;28;20081;-84
2021/01/02 07:01:16;;;;;;;70.30;33.83;;;5.00;99.90;;;;;;5050238;28;20032;-82
2021/01/02 07:03:46;;;;;;;73.50;35.78;;;5.00;99.90;;;;;;5072586;28;20028;-82
2021/01/02 07:06:36;;;;;;;76.35;35.58;;;4.90;99.90;;;;;;5069338;28;20021;-82
2021/01/02 07:09:17;;;;;;;69.90;35.08;;;4.90;99.90;;;;;;5055770;28;20043;-82
2021/01/02 07:11:45;;;;;;;71.20;34.00;;;4.90;99.90;;;;;;5043642;28;20043;-80
2021/01/02 07:14:14;;;;;;;74.20;33.88;;;4.90;99.90;;;;;;5051174;28;20032;-81
2021/01/02 07:16:45;;;;;;;72.35;33.90;;;4.90;99.90;;;;;;5057751;28;20052;-82
2021/01/02 07:19:26;;;;;;;80.32;34.05;;;4.90;99.90;;;;;;5050872;28;20133;-82
2021/01/02 07:22:02;;;;;;;68.93;32.53;;;4.90;99.90;;;;;;5081247;28;20071;-83
2021/01/02 07:24:36;;;;;;;70.30;33.63;;;4.90;99.90;;;;;;5050229;28;20050;-82
2021/01/02 07:27:08;;;;;;;79.05;34.88;;;4.90;99.90;;;;;;5068186;28;20487;-82
2021/01/02 07:29:41;;;;;;;;;;;4.80;99.90;;;;;;5056997;28;20033;-82
2021/01/02 07:32:08;;;;;;;68.43;31.08;;;4.90;99.90;;;;;;5078855;28;19909;-82
2021/01/02 07:34:34;;;;;;;75.10;33.80;;;4.80;99.90;;;;;;5053975;28;20058;-82
2021/01/02 07:37:23;;;;;;;65.18;33.20;;;4.90;99.90;;;;;;5064596;28;20485;-80
2021/01/02 07:40:15;;;;;;;67.38;32.13;;;5.00;99.90;;;;;;5050461;28;20025;-82
2021/01/02 07:42:41;;;;;;;71.60;33.38;;;5.00;99.90;;;;;;5054234;28;20028;-81
2021/01/02 07:45:09;;;;;;;69.70;33.15;;;5.00;99.90;;;;;;5072569;28;20440;-81
2021/01/02 07:47:44;;;;;;;68.35;32.63;;;5.00;99.90;;;;;;5053672;28;20040;-82
2021/01/02 07:50:11;;;;;;;65.40;31.90;;;5.00;99.90;;;;;;5054122;28;20020;-82
2021/01/02 07:52:55;;;;;;;71.55;32.35;;;5.00;99.90;;;;;;5053236;28;20028;-82
2021/01/02 07:55:25;;;;;;;69.50;32.72;;;5.00;99.90;;;;;;5061738;28;20029;-82
2021/01/02 07:57:51;;;;;;;73.97;32.40;;;5.00;99.90;;;;;;5052803;28;20370;-82
2021/01/02 08:00:18;;;;;;;66.70;31.95;;;5.00;99.90;;;;;;5058236;28;20070;-80
2021/01/02 08:02:44;;;;;;;73.32;31.65;;;5.00;99.90;;;;;;5053672;28;20112;-80
2021/01/02 08:05:15;;;;;;;64.35;30.63;;;5.10;99.90;;;;;;5056638;28;20056;-79
2021/01/02 08:07:42;;;;;;;63.53;30.08;;;5.00;99.90;;;;;;5053631;28;20036;-80
2021/01/02 08:10:12;;;;;;;73.88;31.80;;;5.00;99.90;;;;;;5053378;28;20123;-80
2021/01/02 08:12:44;;;;;;;58.28;30.80;;;5.00;99.90;;;;;;5054243;28;20029;-80
2021/01/02 08:15:11;;;;;;;64.32;30.70;;;5.10;99.90;;;;;;5057695;28;20093;-81
2021/01/02 08:17:40;;;;;;;70.85;32.13;;;5.00;99.90;;;;;;5085083;28;20125;-82
2021/01/02 08:20:06;;;;;;;75.95;33.50;;;5.00;99.90;;;;;;5054343;28;20028;-82
2021/01/02 08:22:37;;;;;;;79.80;33.78;;;5.00;99.90;;;;;;5060348;28;20060;-81
2021/01/02 08:25:04;;;;;;;88.43;36.95;;;4.90;99.90;;;;;;5071579;28;20101;-80
2021/01/02 08:27:31;;;;;;;84.72;38.40;;;4.90;99.90;;;;;;5052089;28;20036;-80
2021/01/02 08:30:02;;;;;;;87.25;37.10;;;5.00;99.90;;;;;;5055472;28;20044;-81
2021/01/02 08:32:28;;;;;;;92.18;40.83;;;4.90;99.90;;;;;;5072048;28;20024;-82
2021/01/02 08:34:54;;;;;;;84.65;39.75;;;4.90;99.90;;;;;;5058698;28;20420;-80
2021/01/02 08:37:21;;;;;;;86.00;39.55;;;4.90;99.90;;;;;;5070437;28;20028;-80
2021/01/02 08:39:46;;;;;;;85.07;37.97;;;4.90;99.90;;;;;;5075302;28;20043;-80
2021/01/02 08:42:12;;;;;;;92.10;40.58;;;4.90;99.90;;;;;;5052651;28;20024;-80
2021/01/02 08:44:46;;;;;;;88.68;40.55;;;4.90;99.90;;;;;;5032608;28;20405;-80
2021/01/02 08:47:25;;;;;;;90.20;40.92;;;4.90;99.90;;;;;;5070461;28;20036;-80
2021/01/02 08:49:51;;;;;;;102.32;42.58;;;4.90;99.90;;;;;;5052739;28;20085;-82
2021/01/02 08:52:17;;;;;;;100.35;42.42;;;4.90;99.90;;;;;;5052973;28;20016;-81
2021/01/02 08:54:43;;;;;;;97.43;42.97;;;4.90;99.90;;;;;;5053296;28;20052;-80
2021/01/02 08:57:29;;;;;;;104.30;43.33;;;4.90;99.90;;;;;;5078108;28;20063;-79
2021/01/02 09:00:25;;;;;;;99.75;45.55;;;4.90;99.90;;;;;;5051124;28;20115;-81
2021/01/02 09:03:00;;;;;;;98.63;44.05;;;5.00;99.90;;;;;;4973421;28;20165;-81
2021/01/02 09:05:31;;;;;;;103.90;44.80;;;5.00;99.90;;;;;;4992595;28;20033;-80
2021/01/02 09:08:01;;;;;;;107.32;44.47;;;5.00;99.90;;;;;;4972648;28;20406;-80
2021/01/02 09:10:29;;;;;;;106.13;44.58;;;5.00;99.90;;;;;;4988573;28;20034;-81
2021/01/02 09:13:03;;;;;;;102.22;47.05;;;5.00;99.90;;;;;;4994732;28;20034;-82
2021/01/02 09:15:56;;;;;;;110.38;45.97;;;5.00;99.90;;;;;;4988118;28;20042;-81
2021/01/02 09:18:30;;;;;;;102.35;45.05;;;5.00;99.90;;;;;;4986417;28;20026;-81
2021/01/02 09:21:06;;;;;;;93.18;43.22;;;5.00;99.90;;;;;;4987849;28;20499;-81
2021/01/02 09:23:36;;;;;;;99.38;43.67;;;4.90;99.90;;;;;;4988631;28;20092;-82
2021/01/02 09:26:35;;;;;;;101.97;45.57;;;4.90;99.90;;;;;;4988123;28;20077;-80
2021/01/02 09:29:13;;;;;;;98.13;42.25;;;4.90;99.90;;;;;;4990867;28;20042;-80
2021/01/02 09:31:39;;;;;;;99.50;44.47;;;5.10;99.90;;;;;;4995326;28;20030;-81
2021/01/02 09:34:05;;;;;;;90.85;42.63;;;5.00;99.90;;;;;;4988798;28;20031;-81
2021/01/02 09:36:31;;;;;;;98.38;43.30;;;4.90;99.90;;;;;;4988415;28;20026;-82
2021/01/02 09:38:56;;;;;;;93.70;44.13;;;5.00;99.90;;;;;;5020801;28;20120;-81
2021/01/02 09:41:24;;;;;;;104.53;45.33;;;5.00;99.90;;;;;;5076530;28;20494;-82
2021/01/02 09:43:54;;;;;;;106.88;43.00;;;5.00;99.90;;;;;;5051950;28;20090;-81
2021/01/02 09:46:20;;;;;;;95.47;43.58;;;5.20;99.90;;;;;;5052613;28;20029;-81
2021/01/02 09:48:49;;;;;;;100.60;43.28;;;5.10;99.90;;;;;;5053469;28;20076;-82
2021/01/02 09:51:15;;;;;;;96.03;42.40;;;5.20;99.90;;;;;;5057517;28;20021;-82
2021/01/02 09:53:41;;;;;;;92.32;41.38;;;5.20;99.90;;;;;;5046629;28;20056;-81
2021/01/02 09:56:07;;;;;;;91.78;42.30;;;5.20;99.90;;;;;;5054054;28;20052;-80
2021/01/02 09:58:33;;;;;;;96.05;42.70;;;5.20;99.90;;;;;;5048284;28;20466;-80
2021/01/02 10:00:59;;;;;;;85.18;39.30;;;5.30;99.90;;;;;;5047917;28;20112;-81
2021/01/02 10:03:24;;;;;;;85.45;41.10;;;5.20;99.90;;;;;;5047049;28;20025;-82
2021/01/02 10:05:50;;;;;;;102.35;41.38;;;5.10;99.90;;;;;;5050968;28;20043;-82
2021/01/02 10:08:16;;;;;;;88.05;41.60;;;5.20;99.90;;;;;;5047274;28;20090;-82
2021/01/02 10:10:41;;;;;;;95.05;38.85;;;5.10;99.90;;;;;;5056670;28;20024;-80
2021/01/02 10:13:07;;;;;;;102.20;41.88;;;5.30;99.90;;;;;;5055452;28;20048;-80
2021/01/02 10:15:33;;;;;;;91.78;38.72;;;5.20;99.90;;;;;;5058778;28;20035;-82
2021/01/02 10:17:58;;;;;;;85.68;39.33;;;5.20;99.90;;;;;;5057500;28;20441;-80
2021/01/02 10:20:24;;;;;;;85.93;39.40;;;5.10;99.90;;;;;;5050981;28;20099;-82
2021/01/02 10:22:50;;;;;;;85.50;39.90;;;5.10;99.90;;;;;;5047410;28;20553;-82
2021/01/02 10:25:16;;;;;;;92.13;40.78;;;5.20;99.90;;;;;;5043114;28;20111;-82
2021/01/02 10:27:41;;;;;;;93.10;37.00;;;5.20;99.90;;;;;;5047627;28;20040;-83
2021/01/02 10:30:10;;;;;;;87.68;40.13;;;5.30;99.90;;;;;;5051892;28;20039;-83
2021/01/02 10:32:36;;;;;;;87.72;39.15;;;5.30;99.90;;;;;;5057750;28;20037;-82
2021/01/02 10:35:04;;;;;;;94.05;39.75;;;5.40;99.90;;;;;;5068496;28;20017;-82
2021/01/02 10:37:29;;;;;;;99.18;42.58;;;5.50;99.90;;;;;;5064868;28;20479;-82
2021/01/02 10:39:56;;;;;;;96.63;41.88;;;5.50;99.90;;;;;;5049077;28;20029;-82
2021/01/02 10:42:28;;;;;;;86.47;38.22;;;5.50;99.90;;;;;;5050627;28;20017;-82
2021/01/02 10:44:53;;;;;;;101.53;43.25;;;5.50;99.90;;;;;;5062760;28;20052;-83
2021/01/02 10:47:24;;;;;;;96.03;40.70;;;5.40;99.90;;;;;;5050118;28;20036;-82
2021/01/02 10:49:51;;;;;;;89.63;41.85;;;5.40;99.90;;;;;;5077704;28;20110;-81
2021/01/02 10:52:18;;;;;;;90.72;40.97;;;5.30;99.90;;;;;;5063626;28;20033;-81
2021/01/02 10:54:44;;;;;;;87.07;41.28;;;5.30;99.90;;;;;;5050916;28;20124;-83
2021/01/02 10:57:10;;;;;;;93.80;40.85;;;5.30;99.90;;;;;;5062631;28;20016;-83
2021/01/02 10:59:36;;;;;;;95.35;43.67;;;5.30;99.90;;;;;;5052194;28;20028;-81
2021/01/02 11:02:02;;;;;;;98.25;43.45;;;5.40;99.90;;;;;;5068686;28;20094;-82
2021/01/02 11:04:27;;;;;;;92.47;42.92;;;5.40;99.90;;;;;;5050826;28;20028;-82
2021/01/02 11:06:54;;;;;;;100.30;43.22;;;5.40;99.90;;;;;;5068838;28;20032;-80
2021/01/02 11:09:23;;;;;;;107.22;43.72;;;5.50;99.90;;;;;;5064642;28;20028;-81
2021/01/02 11:11:50;;;;;;;109.85;44.72;;;5.50;99.90;;;;;;5053194;28;20130;-81
2021/01/02 11:14:15;;;;;;;102.13;46.78;;;5.50;99.90;;;;;;5068090;28;20036;-80
2021/01/02 11:16:43;;;;;;;105.07;44.58;;;5.50;99.90;;;;;;5055311;28;20052;-81
2021/01/02 11:19:11;;;;;;;99.57;46.00;;;5.50;99.90;;;;;;5073625;28;20058;-81
2021/01/02 11:21:37;;;;;;;108.45;46.42;;;5.50;99.90;;;;;;5071774;28;20024;-82
2021/01/02 11:24:03;;;;;;;100.03;43.33;;;5.40;99.90;;;;;;5073149;28;20485;-82
2021/01/02 11:26:29;;;;;;;100.45;44.15;;;5.40;99.90;;;;;;5054314;28;20036;-81
2021/01/02 11:28:54;;;;;;;98.75;44.28;;;5.50;99.90;;;;;;5053977;28;20059;-80
2021/01/02 11:31:35;;;;;;;90.38;41.33;;;5.40;99.90;;;;;;5058980;28;20031;-82
2021/01/02 11:34:01;;;;;;;84.13;38.58;;;5.40;99.90;;;;;;5056576;28;20557;-81
2021/01/02 11:36:27;;;;;;;82.00;37.90;;;5.50;99.90;;;;;;5053889;28;20119;-81
2021/01/02 11:38:53;;;;;;;78.43;36.03;;;5.50;99.90;;;;;;5054482;28;20111;-81
2021/01/02 11:41:28;;;;;;;77.55;36.47;;;5.50;99.90;;;;;;5052927;28;20025;-82
2021/01/02 11:43:53;;;;;;;72.03;35.58;;;5.60;99.90;;;;;;5054257;28;20049;-81
2021/01/02 11:46:26;;;;;;;78.25;34.33;;;5.70;99.90;;;;;;5055246;28;20070;-82
2021/01/02 11:48:52;;;;;;;69.57;32.38;;;5.80;99.90;;;;;;5080087;28;20075;-82
2021/01/02 11:51:17;;;;;;;64.78;33.58;;;5.80;99.90;;;;;;5073420;28;20050;-81
2021/01/02 11:53:43;;;;;;;63.95;32.33;;;5.80;99.90;;;;;;5076980;28;20024;-81
2021/01/02 11:56:11;;;;;;;68.28;31.63;;;5.60;99.90;;;;;;5053731;28;20016;-81
2021/01/02 11:58:36;;;;;;;64.88;32.70;;;5.80;99.90;;;;;;5054710;28;20071;-81
2021/01/02 12:01:02;;;;;;;64.65;31.00;;;5.70;99.90;;;;;;5054254;28;20052;-80
2021/01/02 12:03:27;;;;;;;68.35;32.95;;;5.60;99.90;;;;;;5053782;28;20017;-80
2021/01/02 12:05:54;;;;;;;66.68;32.00;;;5.60;99.90;;;;;;5069922;28;20028;-81
2021/01/02 12:08:20;;;;;;;66.05;30.70;;;5.60;99.90;;;;;;5081037;28;20086;-81
2021/01/02 12:10:46;;;;;;;69.68;32.80;;;5.70;99.90;;;;;;5060792;28;20040;-80
2021/01/02 12:13:12;;;;;;;66.03;30.05;;;5.70;99.90;;;;;;5056441;28;20028;-80
2021/01/02 12:15:38;;;;;;;59.30;29.67;;;5.60;99.90;;;;;;5060066;28;20032;-81
2021/01/02 12:18:03;;;;;;;66.00;31.85;;;5.60;99.90;;;;;;5055465;28;20028;-80
2021/01/02 12:20:29;;;;;;;62.78;31.02;;;5.40;99.90;;;;;;5072761;28;20476;-81
2021/01/02 12:22:54;;;;;;;63.20;29.35;;;5.50;99.90;;;;;;5064290;28;20063;-82
2021/01/02 12:25:21;;;;;;;58.30;30.25;;;5.70;99.90;;;;;;5056812;28;20039;-80
2021/01/02 12:27:47;;;;;;;61.50;27.42;;;5.80;99.90;;;;;;5058261;28;20037;-80
2021/01/02 12:30:13;;;;;;;61.40;29.98;;;5.70;99.90;;;;;;5053181;28;20047;-82
2021/01/02 12:32:39;;;;;;;47.78;26.52;;;5.80;99.90;;;;;;5044676;28;20028;-82
2021/01/02 12:35:05;;;;;;;57.75;27.48;;;5.80;99.90;;;;;;5059276;28;20432;-82
2021/01/02 12:37:30;;;;;;;63.67;30.73;;;5.80;99.90;;;;;;5072844;28;20107;-82
2021/01/02 12:39:56;;;;;;;62.72;30.13;;;5.80;99.90;;;;;;5033725;28;20045;-80
2021/01/02 12:42:22;;;;;;;69.35;29.90;;;5.70;99.90;;;;;;5052177;28;20567;-80
2021/01/02 12:44:49;;;;;;;67.57;29.60;;;5.80;99.90;;;;;;5060063;28;20040;-80
2021/01/02 12:47:18;;;;;;;69.20;31.67;;;5.70;99.90;;;;;;5051982;28;20083;-80
2021/01/02 12:49:45;;;;;;;60.20;29.95;;;5.70;99.90;;;;;;5053976;28;20160;-82
2021/01/02 12:52:12;;;;;;;62.25;30.83;;;5.80;99.90;;;;;;5056039;28;20024;-81